Independence of the Seas — C6WW4 — position and weather

sailwx.info

Track history (hours):
 
Tides and Currents Weather Stations Pressure Air Temp Water Temp Dewpoint Dewpoint Depression Visibility Wind Speed Wind Dir Waves Ship Positions

Independence of the Seas

Last reported at 2017-Nov-19 00:38 UTC. Time now 2017-Nov-20 05:51 UTC.
Position N 25°32' W 079°59'.

Length 339 m; draft 8.8 m.

Type: Passenger vessel. MMSI: 309374000.

Date/timePositionNaut miles runAvg speedWind from/ knotsBaromVisibWave heightAir tempDewpointWater temp
2017-Nov-19 00:38N 25°32' W 079°59'215.0
2017-Nov-19 00:30N 25°34' W 079°59'815.1
2017-Nov-19 00:01N 25°42' W 079°59'815.2
2017-Nov-18 23:30N 25°49' W 079°59'815.8
2017-Nov-18 23:00N 25°57' W 080°01'815.1
2017-Nov-18 22:30N 26°04' W 080°04'3 5.0
2017-Nov-18 22:00N 26°05' W 080°07'0 0.5
2017-Nov-18 21:27N 26°05' W 080°07'0 0.0
2017-Nov-18 21:00N 26°05' W 080°07'0 0.0
2017-Nov-18 20:30N 26°05' W 080°07'0 0.0
2017-Nov-18 19:58N 26°05' W 080°07'0 0.0
2017-Nov-18 19:28N 26°05' W 080°07'0 0.0
2017-Nov-18 18:58N 26°05' W 080°07'0 0.0
2017-Nov-18 18:16N 26°05' W 080°07'0 0.0
2017-Nov-18 17:46N 26°05' W 080°07'0 0.0
2017-Nov-18 17:28N 26°05' W 080°07'0 0.0
2017-Nov-18 16:58N 26°05' W 080°07'0 0.0
2017-Nov-18 16:28N 26°05' W 080°07'0 0.0
2017-Nov-18 15:49N 26°05' W 080°07'0 0.0
2017-Nov-18 15:19N 26°05' W 080°07'0 0.0
2017-Nov-18 14:49N 26°05' W 080°07'0 0.0
2017-Nov-18 14:22N 26°05' W 080°07'0 0.0
2017-Nov-18 13:49N 26°05' W 080°07'0 0.0
2017-Nov-18 13:22N 26°05' W 080°07'0 0.0
2017-Nov-18 12:52N 26°05' W 080°07'0 0.0
2017-Nov-18 12:19N 26°05' W 080°07'0 0.0
2017-Nov-18 11:52N 26°05' W 080°07'0 0.0
2017-Nov-18 11:25N 26°05' W 080°07'0 0.0
2017-Nov-18 10:52N 26°05' W 080°07'1 1.9
2017-Nov-18 10:30N 26°06' W 080°07'4 8.4
2017-Nov-18 10:00N 26°05' W 080°02'816.1
2017-Nov-18 09:30N 25°57' W 079°60'816.0
2017-Nov-18 09:00N 25°49' W 079°59'918.0
2017-Nov-18 08:30N 25°41' W 079°57'1018.9
2017-Nov-18 08:00N 25°31' W 079°56'  
2017-Nov-14 02:21N 25°14' W 079°45'718.6
2017-Nov-14 02:00N 25°20' W 079°47'918.3
2017-Nov-14 01:30N 25°28' W 079°50'918.0
2017-Nov-14 01:00N 25°37' W 079°53'917.4
2017-Nov-14 00:30N 25°45' W 079°56'917.4
2017-Nov-14 00:00N 25°54' W 079°59'918.5
2017-Nov-13 23:30N 26°02' W 080°03'5 9.9
2017-Nov-13 23:00N 26°05' W 080°07'0 0.1
2017-Nov-13 22:28N 26°05' W 080°07'0 0.0
2017-Nov-13 21:49N 26°05' W 080°07'  
2017-Nov-10 10:00N 16°42' W 065°12'27012.3 100 / 161015.010.8 26.024.628.0
2017-Nov-09 12:09N 14°36' W 061°04'0 0.1
2017-Nov-09 10:52N 14°36' W 061°05'2 4.3
2017-Nov-09 10:30N 14°35' W 061°06'611.2
2017-Nov-09 09:59N 14°31' W 061°10'510.8
2017-Nov-09 09:30N 14°26' W 061°08'611.2
2017-Nov-09 09:00N 14°22' W 061°04'611.3
2017-Nov-09 08:30N 14°19' W 060°59'611.1
2017-Nov-09 08:00N 14°16' W 060°54'510.9
2017-Nov-09 07:30N 14°13' W 060°50'510.4
2017-Nov-09 07:00N 14°10' W 060°45'  
Track history (hours):
 
Tides and Currents Weather Stations Pressure Air Temp Water Temp Dewpoint Dewpoint Depression Visibility Wind Speed Wind Dir Waves Ship Positions

Independence of the Seas

Last reported at 2017-Nov-19 00:38 UTC. Time now 2017-Nov-20 05:51 UTC.
Position N 25°32' W 079°59'.

Length 339 m; draft 8.8 m.

Type: Passenger vessel. MMSI: 309374000.

Date/timePositionNaut miles runAvg speedWind from/ knotsBaromVisibWave heightAir tempDewpointWater temp
2017-Nov-19 00:38N 25°32' W 079°59'215.0
2017-Nov-19 00:30N 25°34' W 079°59'815.1
2017-Nov-19 00:01N 25°42' W 079°59'815.2
2017-Nov-18 23:30N 25°49' W 079°59'815.8
2017-Nov-18 23:00N 25°57' W 080°01'815.1
2017-Nov-18 22:30N 26°04' W 080°04'3 5.0
2017-Nov-18 22:00N 26°05' W 080°07'0 0.5
2017-Nov-18 21:27N 26°05' W 080°07'0 0.0
2017-Nov-18 21:00N 26°05' W 080°07'0 0.0
2017-Nov-18 20:30N 26°05' W 080°07'0 0.0
2017-Nov-18 19:58N 26°05' W 080°07'0 0.0
2017-Nov-18 19:28N 26°05' W 080°07'0 0.0
2017-Nov-18 18:58N 26°05' W 080°07'0 0.0
2017-Nov-18 18:16N 26°05' W 080°07'0 0.0
2017-Nov-18 17:46N 26°05' W 080°07'0 0.0
2017-Nov-18 17:28N 26°05' W 080°07'0 0.0
2017-Nov-18 16:58N 26°05' W 080°07'0 0.0
2017-Nov-18 16:28N 26°05' W 080°07'0 0.0
2017-Nov-18 15:49N 26°05' W 080°07'0 0.0
2017-Nov-18 15:19N 26°05' W 080°07'0 0.0
2017-Nov-18 14:49N 26°05' W 080°07'0 0.0
2017-Nov-18 14:22N 26°05' W 080°07'0 0.0
2017-Nov-18 13:49N 26°05' W 080°07'0 0.0
2017-Nov-18 13:22N 26°05' W 080°07'0 0.0
2017-Nov-18 12:52N 26°05' W 080°07'0 0.0
2017-Nov-18 12:19N 26°05' W 080°07'0 0.0
2017-Nov-18 11:52N 26°05' W 080°07'0 0.0
2017-Nov-18 11:25N 26°05' W 080°07'0 0.0
2017-Nov-18 10:52N 26°05' W 080°07'1 1.9
2017-Nov-18 10:30N 26°06' W 080°07'4 8.4
2017-Nov-18 10:00N 26°05' W 080°02'816.1
2017-Nov-18 09:30N 25°57' W 079°60'816.0
2017-Nov-18 09:00N 25°49' W 079°59'918.0
2017-Nov-18 08:30N 25°41' W 079°57'1018.9
2017-Nov-18 08:00N 25°31' W 079°56'  
2017-Nov-14 02:21N 25°14' W 079°45'718.6
2017-Nov-14 02:00N 25°20' W 079°47'918.3
2017-Nov-14 01:30N 25°28' W 079°50'918.0
2017-Nov-14 01:00N 25°37' W 079°53'917.4
2017-Nov-14 00:30N 25°45' W 079°56'917.4
2017-Nov-14 00:00N 25°54' W 079°59'918.5
2017-Nov-13 23:30N 26°02' W 080°03'5 9.9
2017-Nov-13 23:00N 26°05' W 080°07'0 0.1
2017-Nov-13 22:28N 26°05' W 080°07'0 0.0
2017-Nov-13 21:49N 26°05' W 080°07'  
2017-Nov-10 10:00N 16°42' W 065°12'27012.3 100 / 161015.010.8 26.024.628.0
2017-Nov-09 12:09N 14°36' W 061°04'0 0.1
2017-Nov-09 10:52N 14°36' W 061°05'2 4.3
2017-Nov-09 10:30N 14°35' W 061°06'611.2
2017-Nov-09 09:59N 14°31' W 061°10'510.8
2017-Nov-09 09:30N 14°26' W 061°08'611.2
2017-Nov-09 09:00N 14°22' W 061°04'611.3
2017-Nov-09 08:30N 14°19' W 060°59'611.1
2017-Nov-09 08:00N 14°16' W 060°54'510.9
2017-Nov-09 07:30N 14°13' W 060°50'510.4
2017-Nov-09 07:00N 14°10' W 060°45'  

Dump ship's entire track history